Time;durP1;ratioP1;P1;durP2;ratioP2;P2;SDS_P1;SDS_P2;PMS_P1;PMS_P2;Temp;Humidity;BMP_temperature;BMP_pressure;BME280_temperature;BME280_humidity;BME280_pressure;Samples;Min_cycle;Max_cycle;Signal;HPM_P1;HPM_P2
2023/10/25 00:02:10;;;;;;;33.67;9.93;;;588.90;1715.20;;;;;;5051624;28;20387;-61
2023/10/25 00:04:36;;;;;;;58.85;12.32;;;589.00;1715.20;;;;;;5051628;28;20104;-60
2023/10/25 00:07:02;;;;;;;34.20;8.73;;;588.90;1715.20;;;;;;5041502;28;20494;-59
2023/10/25 00:09:27;;;;;;;42.13;9.30;;;588.90;1715.20;;;;;;5023945;28;20474;-61
2023/10/25 00:11:54;;;;;;;33.38;9.32;;;588.90;1715.20;;;;;;5049567;28;20495;-60
2023/10/25 00:14:20;;;;;;;39.33;8.95;;;588.90;1740.80;;;;;;5051344;28;20060;-61
2023/10/25 00:16:45;;;;;;;33.85;10.65;;;588.80;1740.80;;;;;;5051509;28;20017;-60
2023/10/25 00:19:11;;;;;;;31.70;8.95;;;588.80;1740.80;;;;;;5044233;28;20091;-60
2023/10/25 00:21:37;;;;;;;38.58;8.65;;;564.10;1766.40;;;;;;5044819;28;20041;-61
2023/10/25 00:24:03;;;;;;;35.92;10.00;;;564.10;1792.00;;;;;;5024308;28;20425;-60
2023/10/25 00:26:29;;;;;;;32.85;8.57;;;564.00;1792.00;;;;;;5049923;28;20025;-60
2023/10/25 00:28:54;;;;;;;36.03;9.93;;;563.80;1792.00;;;;;;5051287;28;20536;-60
2023/10/25 00:31:20;;;;;;;28.60;8.10;;;563.90;1817.60;;;;;;5051239;28;20032;-60
2023/10/25 00:33:46;;;;;;;31.70;9.38;;;563.90;1817.60;;;;;;5036965;28;20128;-60
2023/10/25 00:36:11;;;;;;;29.17;9.00;;;563.80;1817.60;;;;;;5045040;28;20074;-60
2023/10/25 00:38:37;;;;;;;31.20;10.50;;;563.80;1817.60;;;;;;5050978;28;20122;-60
2023/10/25 00:41:03;;;;;;;37.58;9.85;;;563.80;1817.60;;;;;;5051119;28;20032;-60
2023/10/25 00:43:29;;;;;;;35.08;8.52;;;563.80;1817.60;;;;;;5049241;28;20094;-62
2023/10/25 00:46:15;;;;;;;40.83;10.02;;;563.60;1843.20;;;;;;5032016;28;20024;-61
2023/10/25 00:48:45;;;;;;;34.10;8.43;;;563.60;1843.20;;;;;;5047977;28;20013;-59
2023/10/25 00:51:12;;;;;;;21.20;5.13;;;563.60;1843.20;;;;;;5050943;28;20024;-60
2023/10/25 00:53:41;;;;;;;21.90;6.35;;;563.80;1868.80;;;;;;5037936;28;20021;-60
2023/10/25 00:56:10;;;;;;;13.02;5.63;;;563.90;1868.80;;;;;;5050926;28;20032;-60
2023/10/25 00:58:38;;;;;;;24.27;6.80;;;564.00;1868.80;;;;;;5050307;28;20032;-60
2023/10/25 01:01:04;;;;;;;19.35;7.05;;;563.90;1868.80;;;;;;5050505;28;20068;-59
2023/10/25 01:03:30;;;;;;;28.27;8.27;;;563.80;1868.80;;;;;;5050575;28;20092;-59
2023/10/25 01:05:57;;;;;;;32.55;7.70;;;563.70;1894.40;;;;;;5050379;28;20459;-59
2023/10/25 01:08:22;;;;;;;24.77;6.90;;;563.70;1868.80;;;;;;5050622;28;20518;-58
2023/10/25 01:10:53;;;;;;;18.23;6.00;;;563.80;1894.40;;;;;;5050444;28;20104;-60
2023/10/25 01:13:19;;;;;;;17.55;5.40;;;563.80;1894.40;;;;;;5050540;28;20187;-59
2023/10/25 01:15:46;;;;;;;19.45;6.18;;;563.90;1894.40;;;;;;5050684;28;20024;-59
2023/10/25 01:18:12;;;;;;;22.48;5.10;;;563.90;1920.00;;;;;;5043591;28;20379;-59
2023/10/25 01:20:38;;;;;;;23.75;5.32;;;564.00;1894.40;;;;;;5040450;28;20052;-59
2023/10/25 01:23:03;;;;;;;22.75;4.72;;;564.10;1894.40;;;;;;5050255;28;20040;-59
2023/10/25 01:25:29;;;;;;;21.02;5.47;;;564.10;1920.00;;;;;;5050238;28;20322;-60
2023/10/25 01:27:55;;;;;;;12.98;4.03;;;588.80;1894.40;;;;;;5050088;28;20017;-61
2023/10/25 01:30:21;;;;;;;13.98;3.90;;;588.80;1920.00;;;;;;5050144;28;20489;-60
2023/10/25 01:32:47;;;;;;;16.65;5.57;;;589.00;1894.40;;;;;;5048603;28;20045;-60
2023/10/25 01:35:13;;;;;;;14.13;4.43;;;589.00;1894.40;;;;;;5050339;28;20021;-60
2023/10/25 01:37:39;;;;;;;14.18;4.78;;;589.00;1894.40;;;;;;5049934;28;20459;-58
2023/10/25 01:40:06;;;;;;;15.27;3.72;;;589.10;1894.40;;;;;;5049492;28;20480;-60
2023/10/25 01:42:32;;;;;;;17.15;4.20;;;589.10;1894.40;;;;;;5049883;28;20037;-60
2023/10/25 01:44:57;;;;;;;10.02;4.10;;;589.10;1894.40;;;;;;5049647;28;20112;-58
2023/10/25 01:47:23;;;;;;;14.63;4.47;;;589.20;1894.40;;;;;;5048890;28;20117;-59
2023/10/25 01:49:49;;;;;;;8.55;3.75;;;589.20;1894.40;;;;;;5041385;28;20048;-60
2023/10/25 01:52:15;;;;;;;12.10;3.83;;;589.30;1894.40;;;;;;5033029;28;20034;-59
2023/10/25 01:54:42;;;;;;;15.93;4.93;;;589.20;1920.00;;;;;;5034470;28;20060;-59
2023/10/25 01:57:07;;;;;;;16.13;3.88;;;589.20;1920.00;;;;;;5049346;28;20021;-60
2023/10/25 01:59:34;;;;;;;12.02;4.47;;;589.20;1920.00;;;;;;5040292;28;20045;-60
2023/10/25 02:02:00;;;;;;;18.88;4.15;;;589.20;1920.00;;;;;;5045929;28;20102;-60
2023/10/25 02:04:25;;;;;;;14.60;4.55;;;589.30;1894.40;;;;;;5049652;28;20029;-60
2023/10/25 02:06:54;;;;;;;10.35;4.43;;;589.20;1920.00;;;;;;5048809;28;20108;-60
2023/10/25 02:09:20;;;;;;;10.73;3.83;;;589.30;1920.00;;;;;;5049258;28;20463;-60
2023/10/25 02:11:46;;;;;;;10.98;3.78;;;589.30;1920.00;;;;;;5049406;28;20021;-60
2023/10/25 02:14:12;;;;;;;13.00;4.35;;;589.40;1920.00;;;;;;5049350;28;20419;-60
2023/10/25 02:16:38;;;;;;;12.50;3.90;;;589.40;1920.00;;;;;;5048607;28;20048;-60
2023/10/25 02:19:03;;;;;;;13.88;4.55;;;589.40;1920.00;;;;;;5049137;28;20053;-59
2023/10/25 02:21:34;;;;;;;13.38;4.00;;;589.40;1920.00;;;;;;5048783;28;20059;-60
2023/10/25 02:24:00;;;;;;;12.52;4.75;;;589.40;1920.00;;;;;;5049061;28;20033;-60
2023/10/25 02:26:27;;;;;;;7.88;3.28;;;589.40;1920.00;;;;;;5032169;28;20043;-61
2023/10/25 02:28:54;;;;;;;12.40;3.90;;;589.50;1920.00;;;;;;5042838;28;20053;-59
2023/10/25 02:31:20;;;;;;;12.95;3.97;;;589.40;1920.00;;;;;;5048292;28;20104;-60
2023/10/25 02:33:46;;;;;;;9.50;3.80;;;589.40;1920.00;;;;;;5049112;28;20461;-60
2023/10/25 02:36:12;;;;;;;8.25;4.05;;;589.40;1920.00;;;;;;5048049;28;20013;-60
2023/10/25 02:38:38;;;;;;;14.10;4.65;;;589.20;1920.00;;;;;;5048722;28;20025;-61
2023/10/25 02:41:03;;;;;;;12.20;4.15;;;589.20;1945.60;;;;;;5048510;28;20104;-60
2023/10/25 02:43:29;;;;;;;15.60;4.60;;;589.20;1945.60;;;;;;5048882;28;20132;-60
2023/10/25 02:46:02;;;;;;;19.08;4.63;;;589.20;1945.60;;;;;;5048340;28;20017;-60
2023/10/25 02:48:28;;;;;;;;;;;589.20;1920.00;;;;;;5049123;28;20067;-60
2023/10/25 02:50:54;;;;;;;12.68;4.22;;;589.10;1945.60;;;;;;5043812;28;20320;-59
2023/10/25 02:53:19;;;;;;;10.60;4.22;;;589.10;1945.60;;;;;;5040190;28;20099;-61
2023/10/25 02:55:47;;;;;;;11.25;4.13;;;589.10;1945.60;;;;;;5048395;28;20027;-60
2023/10/25 02:58:13;;;;;;;13.98;5.18;;;589.10;1945.60;;;;;;5048384;28;20029;-61
2023/10/25 03:00:39;;;;;;;11.20;4.28;;;589.00;1971.20;;;;;;5047942;28;20506;-61
2023/10/25 03:03:05;;;;;;;8.18;3.97;;;589.00;1971.20;;;;;;5048412;28;20037;-61
2023/10/25 03:05:31;;;;;;;11.18;4.00;;;589.00;1971.20;;;;;;5030655;28;20116;-60
2023/10/25 03:07:57;;;;;;;9.63;4.18;;;588.90;1996.80;;;;;;5040759;28;20037;-60
2023/10/25 03:10:22;;;;;;;12.15;4.40;;;588.90;1996.80;;;;;;5048358;28;20021;-61
2023/10/25 03:12:48;;;;;;;10.10;3.83;;;589.00;1996.80;;;;;;5040633;28;20065;-61
2023/10/25 03:15:14;;;;;;;14.18;4.57;;;589.00;1996.80;;;;;;5046885;28;20025;-60
2023/10/25 03:17:40;;;;;;;15.32;4.80;;;588.90;1996.80;;;;;;5048425;28;20040;-61
2023/10/25 03:20:06;;;;;;;12.38;4.28;;;588.90;1996.80;;;;;;5048054;28;20045;-59
2023/10/25 03:22:32;;;;;;;11.45;3.83;;;589.00;2022.40;;;;;;5048270;28;20025;-60
2023/10/25 03:24:58;;;;;;;11.88;4.22;;;589.00;2022.40;;;;;;5039649;28;20086;-60
2023/10/25 03:27:24;;;;;;;13.50;4.35;;;588.90;2022.40;;;;;;5045203;28;20100;-60
2023/10/25 03:29:50;;;;;;;9.77;3.85;;;588.80;2022.40;;;;;;5037896;28;20032;-61
2023/10/25 03:32:15;;;;;;;13.80;4.35;;;588.80;2048.00;;;;;;5048287;28;20535;-60
2023/10/25 03:34:42;;;;;;;8.85;3.42;;;564.10;2048.00;;;;;;5032614;28;20214;-59
2023/10/25 03:37:07;;;;;;;12.30;3.65;;;564.10;2048.00;;;;;;5035680;28;20016;-60
2023/10/25 03:39:34;;;;;;;8.73;3.55;;;564.00;2048.00;;;;;;5047980;28;20543;-60
2023/10/25 03:42:00;;;;;;;12.65;3.92;;;563.90;2073.60;;;;;;5047912;28;20456;-61
2023/10/25 03:44:26;;;;;;;15.38;4.80;;;563.90;2073.60;;;;;;5048224;28;20079;-61
2023/10/25 03:46:53;;;;;;;15.35;3.67;;;563.80;2073.60;;;;;;5048162;28;20052;-60
2023/10/25 03:49:19;;;;;;;9.15;3.15;;;563.80;2099.20;;;;;;5047929;28;20025;-59
2023/10/25 03:51:45;;;;;;;10.35;3.97;;;563.80;2099.20;;;;;;5048586;28;20455;-59
2023/10/25 03:54:10;;;;;;;10.25;4.45;;;563.90;2073.60;;;;;;5048372;28;20017;-60
2023/10/25 03:56:36;;;;;;;18.27;3.90;;;563.90;2073.60;;;;;;5047992;28;20033;-60
2023/10/25 03:59:02;;;;;;;12.23;4.20;;;563.90;2073.60;;;;;;5048092;28;20017;-60
2023/10/25 04:01:27;;;;;;;13.15;3.75;;;563.90;2073.60;;;;;;5047541;28;20068;-60
2023/10/25 04:03:53;;;;;;;11.05;3.55;;;563.90;2073.60;;;;;;5048070;28;20033;-60
2023/10/25 04:06:19;;;;;;;10.43;3.60;;;563.90;2073.60;;;;;;5029849;28;20101;-61
2023/10/25 04:08:44;;;;;;;10.70;4.03;;;563.90;2073.60;;;;;;5040783;28;20432;-61
2023/10/25 04:11:10;;;;;;;16.83;4.10;;;563.80;2099.20;;;;;;5051484;28;20163;-61
2023/10/25 04:13:36;;;;;;;8.50;3.47;;;563.70;2099.20;;;;;;5051375;28;20036;-59
2023/10/25 04:16:07;;;;;;;11.30;3.60;;;563.70;2099.20;;;;;;5051585;28;20078;-60
2023/10/25 04:18:33;;;;;;;11.45;3.75;;;563.70;2099.20;;;;;;5051245;28;20484;-60
2023/10/25 04:21:00;;;;;;;11.65;3.70;;;563.70;2124.80;;;;;;5043016;28;20150;-60
2023/10/25 04:23:28;;;;;;;10.73;4.85;;;563.60;2124.80;;;;;;5042066;28;20037;-60
2023/10/25 04:26:06;;;;;;;16.23;4.30;;;563.60;2124.80;;;;;;5051112;28;20082;-60
2023/10/25 04:28:32;;;;;;;7.88;3.60;;;563.60;2150.40;;;;;;5042928;28;20487;-61
2023/10/25 04:30:58;;;;;;;11.90;3.80;;;563.50;2176.00;;;;;;5050909;28;20033;-61
2023/10/25 04:33:24;;;;;;;9.40;3.60;;;563.50;2176.00;;;;;;5050660;28;20028;-60
2023/10/25 04:35:50;;;;;;;10.07;3.60;;;563.40;2176.00;;;;;;5051067;28;20036;-60
2023/10/25 04:38:16;;;;;;;11.68;3.97;;;563.40;2201.60;;;;;;5051000;28;20025;-60
2023/10/25 04:40:41;;;;;;;9.98;3.38;;;563.40;2201.60;;;;;;5043734;28;20041;-59
2023/10/25 04:43:07;;;;;;;8.93;3.25;;;563.20;2252.80;;;;;;5023903;28;20041;-60
2023/10/25 04:45:36;;;;;;;11.10;4.18;;;538.50;2227.20;;;;;;5033115;28;20056;-61
2023/10/25 04:48:02;;;;;;;8.10;3.80;;;538.50;2252.80;;;;;;5037885;28;20029;-60
2023/10/25 04:50:32;;;;;;;12.77;4.47;;;538.40;2278.40;;;;;;5048552;28;20083;-61
2023/10/25 04:52:59;;;;;;;9.15;3.78;;;538.40;2278.40;;;;;;5045661;28;20082;-61
2023/10/25 04:55:26;;;;;;;9.18;3.40;;;538.30;2304.00;;;;;;5050454;28;20021;-61
2023/10/25 04:57:52;;;;;;;24.25;5.20;;;538.30;2304.00;;;;;;5051120;28;20479;-61
2023/10/25 05:00:18;;;;;;;13.02;4.45;;;538.10;2329.60;;;;;;5050065;28;20029;-61
2023/10/25 05:02:44;;;;;;;9.32;4.07;;;538.00;2329.60;;;;;;5050679;28;20486;-61
2023/10/25 05:05:09;;;;;;;15.38;3.50;;;537.90;2355.20;;;;;;5036693;28;20030;-59
2023/10/25 05:07:39;;;;;;;15.70;4.10;;;537.90;2355.20;;;;;;5044462;28;20047;-61
2023/10/25 05:10:07;;;;;;;9.63;3.83;;;537.90;2355.20;;;;;;5045869;28;20375;-60
2023/10/25 05:12:38;;;;;;;13.25;4.25;;;537.80;2355.20;;;;;;5046290;28;20021;-60
2023/10/25 05:15:06;;;;;;;9.73;3.50;;;537.70;2380.80;;;;;;5038121;28;20034;-59
2023/10/25 05:17:32;;;;;;;12.68;3.05;;;537.70;2380.80;;;;;;5031842;28;20467;-60
2023/10/25 05:19:58;;;;;;;11.88;3.67;;;537.60;2380.80;;;;;;5019679;28;20076;-61
2023/10/25 05:22:29;;;;;;;8.32;3.58;;;537.70;2380.80;;;;;;5033138;28;20033;-59
2023/10/25 05:24:55;;;;;;;10.20;3.90;;;537.70;2380.80;;;;;;5035278;28;20108;-61
2023/10/25 05:27:21;;;;;;;8.57;3.80;;;537.60;2380.80;;;;;;5033047;28;20109;-60
2023/10/25 05:29:47;;;;;;;9.07;4.10;;;537.70;2380.80;;;;;;5039191;28;20033;-59
2023/10/25 05:32:21;;;;;;;9.35;4.10;;;537.60;2406.40;;;;;;5036206;28;20376;-60
2023/10/25 05:34:50;;;;;;;9.85;4.82;;;537.60;2406.40;;;;;;5036359;28;20047;-60
2023/10/25 05:37:16;;;;;;;11.20;5.20;;;537.60;2406.40;;;;;;5041322;28;20040;-59
2023/10/25 05:39:43;;;;;;;19.65;5.75;;;537.60;2406.40;;;;;;5041772;28;20033;-61
2023/10/25 05:42:13;;;;;;;12.45;4.07;;;512.90;2380.80;;;;;;5049833;28;20021;-60
2023/10/25 05:44:39;;;;;;;13.50;4.13;;;537.60;2406.40;;;;;;5017800;28;20495;-60
2023/10/25 05:47:05;;;;;;;13.98;3.33;;;537.60;2406.40;;;;;;5031235;28;20060;-61
2023/10/25 05:49:31;;;;;;;15.05;5.10;;;512.90;2380.80;;;;;;5039518;28;20061;-60
2023/10/25 05:51:57;;;;;;;11.50;4.00;;;512.90;2380.80;;;;;;5030973;28;20029;-59
2023/10/25 05:54:23;;;;;;;14.23;6.88;;;512.90;2380.80;;;;;;5041400;28;20057;-60
2023/10/25 05:56:48;;;;;;;14.48;8.02;;;512.90;2380.80;;;;;;5046815;28;20036;-61
2023/10/25 05:59:14;;;;;;;18.10;8.05;;;512.90;2380.80;;;;;;5039413;28;20025;-61
2023/10/25 06:01:50;;;;;;;23.65;7.80;;;537.60;2406.40;;;;;;5049503;28;20037;-60
2023/10/25 06:04:17;;;;;;;12.15;6.07;;;537.80;2406.40;;;;;;5049315;28;20339;-61
2023/10/25 06:06:45;;;;;;;12.68;5.43;;;537.90;2406.40;;;;;;5044837;28;20013;-60
2023/10/25 06:09:13;;;;;;;20.38;7.65;;;538.00;2406.40;;;;;;5030222;28;20055;-61
2023/10/25 06:11:39;;;;;;;15.05;6.45;;;538.20;2406.40;;;;;;5044514;28;20375;-61
2023/10/25 06:14:09;;;;;;;14.00;5.85;;;538.00;2406.40;;;;;;5048814;28;20482;-61
2023/10/25 06:16:34;;;;;;;19.52;6.15;;;538.10;2406.40;;;;;;5039983;28;20058;-62
2023/10/25 06:19:01;;;;;;;13.82;6.55;;;538.00;2406.40;;;;;;5049055;28;20049;-61
2023/10/25 06:21:27;;;;;;;14.65;5.03;;;538.20;2406.40;;;;;;5037598;28;20082;-61
2023/10/25 06:23:53;;;;;;;17.48;6.15;;;538.10;2406.40;;;;;;5032205;28;20040;-61
2023/10/25 06:26:19;;;;;;;19.05;5.18;;;538.30;2406.40;;;;;;5048705;28;20436;-62
2023/10/25 06:28:45;;;;;;;12.45;5.20;;;538.50;2406.40;;;;;;5035757;28;20036;-61
2023/10/25 06:31:12;;;;;;;10.23;4.45;;;538.40;2406.40;;;;;;5049137;28;20036;-60
2023/10/25 06:33:38;;;;;;;23.05;5.68;;;538.50;2406.40;;;;;;5049072;28;20036;-62
2023/10/25 06:36:04;;;;;;;10.48;5.28;;;538.50;2406.40;;;;;;5045526;28;20032;-61
2023/10/25 06:38:30;;;;;;;14.20;4.75;;;538.50;2406.40;;;;;;5048556;28;20441;-60
2023/10/25 06:40:56;;;;;;;14.57;5.28;;;538.50;2406.40;;;;;;5044959;28;20022;-60
2023/10/25 06:43:22;;;;;;;12.57;5.55;;;563.40;2432.00;;;;;;5038737;28;20033;-61
2023/10/25 06:45:48;;;;;;;15.80;6.80;;;563.50;2406.40;;;;;;5044719;28;20021;-60
2023/10/25 06:48:14;;;;;;;15.80;6.22;;;563.40;2406.40;;;;;;5038730;28;20028;-59
2023/10/25 06:50:43;;;;;;;16.10;6.47;;;563.30;2432.00;;;;;;5044973;28;20086;-61
2023/10/25 06:53:09;;;;;;;14.32;6.70;;;538.50;2406.40;;;;;;5041557;28;20044;-60
2023/10/25 06:55:34;;;;;;;18.20;8.10;;;538.40;2406.40;;;;;;5040050;28;20017;-60
2023/10/25 06:58:00;;;;;;;22.83;8.88;;;538.50;2406.40;;;;;;5039088;28;20033;-60
2023/10/25 07:00:26;;;;;;;18.52;7.90;;;538.20;2406.40;;;;;;5028911;28;20079;-60
2023/10/25 07:02:56;;;;;;;22.92;7.72;;;538.30;2406.40;;;;;;5036068;28;20518;-60
2023/10/25 07:05:25;;;;;;;31.48;8.63;;;538.40;2406.40;;;;;;5042355;28;20100;-61
2023/10/25 07:07:52;;;;;;;22.92;7.43;;;563.40;2406.40;;;;;;5039549;28;20032;-61
2023/10/25 07:10:19;;;;;;;26.83;7.43;;;563.40;2406.40;;;;;;5041496;28;20029;-61
2023/10/25 07:12:46;;;;;;;24.83;7.38;;;563.60;2380.80;;;;;;5041568;28;20336;-61
2023/10/25 07:15:12;;;;;;;19.00;7.35;;;563.60;2406.40;;;;;;5039520;28;20428;-61
2023/10/25 07:17:39;;;;;;;20.10;6.82;;;588.90;2329.60;;;;;;5047786;28;20021;-61
2023/10/25 07:20:09;;;;;;;16.20;6.80;;;614.50;2227.20;;;;;;5035767;28;20056;-61
2023/10/25 07:22:35;;;;;;;12.73;4.45;;;614.80;2176.00;;;;;;5021404;28;20081;-62
2023/10/25 07:25:03;;;;;;;20.58;6.35;;;615.10;2099.20;;;;;;5032014;28;20029;-61
2023/10/25 07:27:28;;;;;;;14.13;6.30;;;640.80;2073.60;;;;;;5048616;28;20518;-61
2023/10/25 07:29:57;;;;;;;16.92;6.00;;;666.30;2048.00;;;;;;5028423;28;20037;-62
2023/10/25 07:32:23;;;;;;;13.07;4.55;;;691.40;1996.80;;;;;;5037888;28;20024;-61
2023/10/25 07:34:49;;;;;;;12.65;4.72;;;691.50;1945.60;;;;;;5048133;28;20029;-61
2023/10/25 07:37:15;;;;;;;23.30;7.03;;;691.60;1920.00;;;;;;5040563;28;20499;-61
2023/10/25 07:39:41;;;;;;;11.48;4.82;;;692.10;1920.00;;;;;;5035003;28;20056;-62
2023/10/25 07:42:07;;;;;;;13.93;4.13;;;691.90;1945.60;;;;;;5041134;28;20105;-62
2023/10/25 07:44:34;;;;;;;10.90;5.10;;;691.70;1920.00;;;;;;5043056;28;20044;-62
2023/10/25 07:47:00;;;;;;;10.80;4.32;;;691.90;1920.00;;;;;;5045721;28;20059;-60
2023/10/25 07:49:26;;;;;;;10.45;4.70;;;717.30;1868.80;;;;;;5043632;28;20061;-58
2023/10/25 07:51:54;;;;;;;12.02;4.10;;;717.60;1817.60;;;;;;5047031;28;20333;-69
2023/10/25 07:54:20;;;;;;;7.03;4.03;;;742.50;1766.40;;;;;;5046990;28;20029;-70
2023/10/25 07:56:46;;;;;;;10.75;4.65;;;717.50;1740.80;;;;;;5049070;28;20029;-70
2023/10/25 07:59:12;;;;;;;9.23;4.32;;;768.10;1740.80;;;;;;5033711;28;20053;-71
2023/10/25 08:01:38;;;;;;;13.68;4.97;;;793.80;1715.20;;;;;;5041343;28;20069;-70
2023/10/25 08:04:05;;;;;;;6.25;4.10;;;819.80;1612.80;;;;;;5045424;28;20043;-70
2023/10/25 08:06:31;;;;;;;9.13;4.28;;;794.50;1587.20;;;;;;5049132;28;20478;-72
2023/10/25 08:08:57;;;;;;;10.07;3.78;;;819.80;1561.60;;;;;;5048835;28;20037;-69
2023/10/25 08:11:22;;;;;;;7.35;4.63;;;845.40;1536.00;;;;;;5050043;28;20013;-70
2023/10/25 08:13:48;;;;;;;6.03;3.22;;;845.20;1536.00;;;;;;5049177;28;20048;-70
2023/10/25 08:16:14;;;;;;;8.77;4.55;;;819.60;1510.40;;;;;;5048841;28;20071;-70
2023/10/25 08:18:40;;;;;;;8.48;3.80;;;819.60;1484.80;;;;;;5049054;28;20113;-70
2023/10/25 08:21:12;;;;;;;9.52;4.47;;;844.90;1459.20;;;;;;5049851;28;20059;-70
2023/10/25 08:23:38;;;;;;;6.70;3.90;;;870.80;1408.00;;;;;;5049630;28;20060;-70
2023/10/25 08:26:04;;;;;;;5.85;3.20;;;896.10;1331.20;;;;;;5049735;28;20750;-69
2023/10/25 08:28:29;;;;;;;6.68;3.92;;;896.40;1331.20;;;;;;5049471;28;20060;-72
2023/10/25 08:30:55;;;;;;;6.95;3.13;;;870.80;1382.40;;;;;;5040782;28;20215;-71
2023/10/25 08:33:21;;;;;;;7.10;3.10;;;845.20;1408.00;;;;;;5036682;28;20120;-71
2023/10/25 08:35:47;;;;;;;4.72;2.95;;;794.50;1408.00;;;;;;5049677;28;20470;-69
2023/10/25 08:38:13;;;;;;;5.72;2.40;;;794.20;1433.60;;;;;;5049775;28;20021;-70
2023/10/25 08:40:40;;;;;;;4.72;2.67;;;768.90;1408.00;;;;;;5049572;28;20474;-69
2023/10/25 08:43:07;;;;;;;7.43;2.80;;;768.60;1459.20;;;;;;5049346;28;20504;-70
2023/10/25 08:45:36;;;;;;;3.80;2.42;;;768.40;1433.60;;;;;;5048974;28;20040;-70
2023/10/25 08:48:04;;;;;;;4.93;2.28;;;768.90;1433.60;;;;;;5037296;28;20479;-69
2023/10/25 08:50:31;;;;;;;4.28;2.42;;;768.90;1408.00;;;;;;5048468;28;20035;-69
2023/10/25 08:52:58;;;;;;;5.65;2.72;;;794.20;1408.00;;;;;;5038001;28;20056;-70
2023/10/25 08:55:24;;;;;;;4.30;2.50;;;794.20;1408.00;;;;;;5047743;28;20033;-70
2023/10/25 08:57:56;;;;;;;3.72;2.13;;;793.70;1408.00;;;;;;5049472;28;20051;-70
2023/10/25 09:00:24;;;;;;;5.32;2.67;;;768.10;1433.60;;;;;;5049150;28;20471;-69
2023/10/25 09:02:50;;;;;;;4.65;2.92;;;768.70;1408.00;;;;;;5049254;28;20044;-69
2023/10/25 09:05:16;;;;;;;4.72;2.10;;;768.40;1433.60;;;;;;5033395;28;20021;-70
2023/10/25 09:07:41;;;;;;;4.90;2.15;;;768.30;1433.60;;;;;;5034788;28;20029;-69
2023/10/25 09:10:12;;;;;;;2.67;1.70;;;743.00;1459.20;;;;;;5049178;28;20094;-69
2023/10/25 09:12:37;;;;;;;6.72;2.33;;;742.60;1484.80;;;;;;5048970;28;20031;-70
2023/10/25 09:15:04;;;;;;;4.63;1.98;;;717.00;1536.00;;;;;;5048766;28;20033;-69
2023/10/25 09:17:33;;;;;;;6.97;2.10;;;716.80;1561.60;;;;;;5048818;28;20078;-70
2023/10/25 09:19:59;;;;;;;3.58;2.15;;;716.90;1561.60;;;;;;5047984;28;20140;-69
2023/10/25 09:22:34;;;;;;;3.97;2.22;;;716.90;1561.60;;;;;;5048550;28;20096;-71
2023/10/25 09:25:01;;;;;;;10.65;2.85;;;691.90;1561.60;;;;;;5048609;28;20033;-70
2023/10/25 09:27:28;;;;;;;6.22;1.90;;;691.60;1587.20;;;;;;5048780;28;20025;-70
2023/10/25 09:30:09;;;;;;;5.43;2.03;;;691.40;1587.20;;;;;;5048198;28;20033;-69
2023/10/25 09:32:36;;;;;;;6.40;2.00;;;691.30;1612.80;;;;;;5048257;28;20037;-70
2023/10/25 09:35:03;;;;;;;3.92;1.90;;;691.40;1612.80;;;;;;5036480;28;20029;-69
2023/10/25 09:37:29;;;;;;;4.22;1.77;;;691.60;1612.80;;;;;;5028867;28;20029;-69
2023/10/25 09:39:54;;;;;;;8.63;1.90;;;691.60;1612.80;;;;;;5048590;28;20116;-70
2023/10/25 09:42:26;;;;;;;8.65;2.53;;;691.60;1612.80;;;;;;5047576;28;20112;-68
2023/10/25 09:45:01;;;;;;;5.10;1.95;;;691.30;1612.80;;;;;;5048340;28;20032;-69
2023/10/25 09:47:33;;;;;;;4.03;1.75;;;666.50;1638.40;;;;;;5037864;28;20049;-70
2023/10/25 09:50:27;;;;;;;5.65;1.90;;;666.40;1638.40;;;;;;5039690;28;20020;-70
2023/10/25 09:53:02;;;;;;;4.10;2.00;;;666.50;1664.00;;;;;;5032788;28;20487;-69
2023/10/25 09:55:30;;;;;;;6.80;2.58;;;666.10;1638.40;;;;;;5038330;28;20704;-69
2023/10/25 09:57:58;;;;;;;7.22;1.60;;;665.90;1664.00;;;;;;5028387;28;20079;-69
2023/10/25 10:00:23;;;;;;;3.13;1.98;;;666.00;1664.00;;;;;;5029170;28;20112;-68
2023/10/25 10:03:12;;;;;;;6.07;2.10;;;666.10;1664.00;;;;;;5033929;28;20116;-70
2023/10/25 10:05:53;;;;;;;6.03;1.65;;;666.30;1664.00;;;;;;5014146;28;20034;-69
2023/10/25 10:08:35;;;;;;;3.78;1.75;;;666.50;1664.00;;;;;;5035544;28;20116;-71
2023/10/25 10:11:09;;;;;;;5.65;2.30;;;666.30;1664.00;;;;;;5045131;28;20021;-69
2023/10/25 10:13:35;;;;;;;2.65;1.63;;;666.50;1638.40;;;;;;5046337;28;20032;-70
2023/10/25 10:16:05;;;;;;;3.88;1.80;;;666.40;1664.00;;;;;;5045668;28;20013;-70
2023/10/25 10:18:59;;;;;;;5.30;1.75;;;666.30;1664.00;;;;;;5047254;28;20494;-69
2023/10/25 10:21:25;;;;;;;4.30;1.80;;;691.20;1638.40;;;;;;5018162;28;20041;-69
2023/10/25 10:23:51;;;;;;;5.40;2.33;;;691.60;1638.40;;;;;;5031720;28;20033;-70
2023/10/25 10:26:44;;;;;;;5.72;2.20;;;691.70;1612.80;;;;;;5037148;28;20467;-69
2023/10/25 10:29:32;;;;;;;5.72;2.60;;;691.60;1638.40;;;;;;5022507;28;20025;-70
2023/10/25 10:32:02;;;;;;;5.13;2.47;;;691.50;1638.40;;;;;;5034095;28;20033;-67
2023/10/25 10:34:49;;;;;;;4.38;2.00;;;691.60;1638.40;;;;;;5035376;28;20140;-68
2023/10/25 10:37:17;;;;;;;7.18;1.85;;;691.80;1638.40;;;;;;5037163;28;20030;-70
2023/10/25 10:40:09;;;;;;;7.22;2.22;;;691.70;1638.40;;;;;;5034066;28;20021;-70
2023/10/25 10:42:35;;;;;;;4.32;1.88;;;691.50;1638.40;;;;;;5045040;28;20037;-70
2023/10/25 10:45:07;;;;;;;3.95;1.70;;;691.60;1612.80;;;;;;5047412;28;20033;-70
2023/10/25 10:47:38;;;;;;;6.75;2.22;;;691.50;1638.40;;;;;;5043721;28;20024;-70
2023/10/25 10:50:20;;;;;;;4.63;2.00;;;691.60;1638.40;;;;;;5040978;28;20114;-70
2023/10/25 10:52:48;;;;;;;3.70;1.65;;;691.60;1612.80;;;;;;5042304;28;20033;-70
2023/10/25 10:55:21;;;;;;;8.20;2.53;;;691.40;1612.80;;;;;;5044511;28;20033;-68
2023/10/25 10:57:47;;;;;;;3.67;1.92;;;691.40;1612.80;;;;;;5042399;28;20398;-70
2023/10/25 11:00:18;;;;;;;2.92;1.70;;;691.20;1612.80;;;;;;5044485;28;20033;-69
2023/10/25 11:02:48;;;;;;;5.90;1.98;;;666.30;1612.80;;;;;;5043954;28;20396;-69
2023/10/25 11:05:15;;;;;;;6.70;4.00;;;666.00;1638.40;;;;;;5044648;28;20029;-69
2023/10/25 11:07:41;;;;;;;15.52;12.20;;;665.90;1638.40;;;;;;5043248;28;20108;-68
2023/10/25 11:10:10;;;;;;;6.60;3.08;;;666.00;1638.40;;;;;;5043022;28;20031;-68
2023/10/25 11:12:37;;;;;;;9.07;6.30;;;666.20;1638.40;;;;;;5029023;28;20075;-69
2023/10/25 11:15:04;;;;;;;18.95;15.25;;;666.40;1638.40;;;;;;5029182;28;20380;-68
2023/10/25 11:17:34;;;;;;;8.88;3.42;;;691.30;1612.80;;;;;;5039679;28;20418;-69
2023/10/25 11:20:00;;;;;;;5.57;2.28;;;691.50;1612.80;;;;;;5030579;28;20045;-69
2023/10/25 11:22:26;;;;;;;3.20;1.90;;;691.80;1587.20;;;;;;5044273;28;20057;-69
2023/10/25 11:24:53;;;;;;;8.85;4.78;;;691.80;1587.20;;;;;;5031604;28;20571;-69
2023/10/25 11:27:19;;;;;;;3.95;2.47;;;691.80;1612.80;;;;;;5037809;28;20041;-72
2023/10/25 11:29:48;;;;;;;6.30;3.90;;;691.70;1587.20;;;;;;5050839;28;20075;-69
2023/10/25 11:32:15;;;;;;;6.03;2.20;;;691.80;1612.80;;;;;;5044608;28;20030;-70
2023/10/25 11:34:47;;;;;;;3.88;2.38;;;691.80;1587.20;;;;;;5049170;28;20029;-70
2023/10/25 11:37:12;;;;;;;4.18;2.15;;;691.80;1587.20;;;;;;5027075;28;20091;-70
2023/10/25 11:39:59;;;;;;;6.25;2.50;;;691.60;1612.80;;;;;;5040929;28;20029;-70
2023/10/25 11:42:27;;;;;;;5.25;2.22;;;691.40;1612.80;;;;;;5041589;28;20036;-70
2023/10/25 11:44:54;;;;;;;6.75;2.20;;;691.40;1612.80;;;;;;5033489;28;20087;-70
2023/10/25 11:47:22;;;;;;;5.88;2.20;;;691.40;1612.80;;;;;;5026271;28;20049;-69
2023/10/25 11:50:00;;;;;;;12.48;11.45;;;691.40;1638.40;;;;;;5039834;28;20033;-70
2023/10/25 11:52:27;;;;;;;7.70;6.90;;;691.40;1638.40;;;;;;5045381;28;20025;-70
2023/10/25 11:54:57;;;;;;;4.28;2.20;;;691.50;1612.80;;;;;;5041604;28;20075;-69
2023/10/25 11:57:23;;;;;;;6.25;4.00;;;691.60;1612.80;;;;;;5047756;28;20475;-71
2023/10/25 11:59:50;;;;;;;4.38;1.88;;;691.40;1638.40;;;;;;5044774;28;20052;-70
2023/10/25 12:02:16;;;;;;;3.60;1.90;;;691.20;1638.40;;;;;;5050948;28;20078;-70
2023/10/25 12:04:41;;;;;;;7.88;2.55;;;666.40;1664.00;;;;;;5042159;28;20037;-68
2023/10/25 12:07:07;;;;;;;5.53;1.95;;;666.30;1664.00;;;;;;5037011;28;20028;-69
2023/10/25 12:09:33;;;;;;;3.55;1.90;;;666.30;1664.00;;;;;;5045272;28;20442;-69
2023/10/25 12:11:59;;;;;;;5.63;1.88;;;666.30;1664.00;;;;;;5032334;28;20053;-68
2023/10/25 12:14:25;;;;;;;4.97;2.38;;;666.00;1664.00;;;;;;5031137;28;20468;-70